Time;durP1;ratioP1;P1;durP2;ratioP2;P2;SDS_P1;SDS_P2;PMS_P1;PMS_P2;Temp;Humidity;BMP_temperature;BMP_pressure;BME280_temperature;BME280_humidity;BME280_pressure;Samples;Min_cycle;Max_cycle;Signal;HPM_P1;HPM_P2
2022/11/29 00:00:15;;;;;;;;;;;;;;;;;;6149751;23;19927;-91
2022/11/29 00:02:41;;;;;;;;;;;;;;;;;;6146644;23;20378;-91
2022/11/29 00:05:07;;;;;;;;;;;;;;;;;;6148837;23;20006;-91
2022/11/29 00:07:32;;;;;;;;;;;;;;;;;;6146137;23;19921;-91
2022/11/29 00:09:58;;;;;;;;;;;;;;;;;;6151147;23;19921;-91
2022/11/29 00:12:27;;;;;;;;;;;;;;;;;;6149818;23;19928;-91
2022/11/29 00:14:53;;;;;;;;;;;;;;;;;;6150405;23;19920;-91
2022/11/29 00:17:19;;;;;;;;;;;;;;;;;;6150122;23;20716;-92
2022/11/29 00:19:45;;;;;;;;;;;;;;;;;;6122953;23;19920;-91
2022/11/29 00:22:11;;;;;;;;;;;;;;;;;;6124274;23;19932;-91
2022/11/29 00:24:37;;;;;;;;;;;;;;;;;;6122558;23;20251;-91
2022/11/29 00:27:03;;;;;;;;;;;;;;;;;;6123538;23;19971;-91
2022/11/29 00:29:29;;;;;;;;;;;;;;;;;;6123740;23;20333;-91
2022/11/29 00:31:55;;;;;;;;;;;;;;;;;;6150498;23;19920;-92
2022/11/29 00:34:21;;;;;;;;;;;;;;;;;;6125925;23;20008;-92
2022/11/29 00:36:47;;;;;;;;;;;;;;;;;;6149303;23;19920;-92
2022/11/29 00:39:15;;;;;;;;;;;;;;;;;;6149002;23;19968;-91
2022/11/29 00:41:41;;;;;;;;;;;;;;;;;;6121312;23;20391;-91
2022/11/29 00:44:07;;;;;;;;;;;;;;;;;;6148368;23;19956;-91
2022/11/29 00:46:32;;;;;;;;;;;;;;;;;;6145101;23;19920;-91
2022/11/29 00:48:58;;;;;;;;;;;;;;;;;;6148810;23;19920;-91
2022/11/29 00:51:27;;;;;;;;;;;;;;;;;;6124079;23;20447;-91
2022/11/29 00:53:53;;;;;;;;;;;;;;;;;;6124202;23;19920;-91
2022/11/29 00:56:19;;;;;;;;;;;;;;;;;;6149394;23;19920;-91
2022/11/29 00:58:47;;;;;;;;;;;;;;;;;;6145458;23;20116;-91
2022/11/29 01:01:13;;;;;;;;;;;;;;;;;;6120173;23;20254;-91
2022/11/29 01:03:39;;;;;;;;;;;;;;;;;;6120971;23;19920;-91
2022/11/29 01:06:05;;;;;;;;;;;;;;;;;;6123821;23;19916;-91
2022/11/29 01:08:31;;;;;;;;;;;;;;;;;;6124297;23;20238;-91
2022/11/29 01:10:57;;;;;;;;;;;;;;;;;;6126909;23;20378;-91
2022/11/29 01:13:23;;;;;;;;;;;;;;;;;;6150427;23;20107;-91
2022/11/29 01:15:49;;;;;;;;;;;;;;;;;;6151522;23;19916;-91
2022/11/29 01:18:15;;;;;;;;;;;;;;;;;;6149682;23;19920;-91
2022/11/29 01:20:40;;;;;;;;;;;;;;;;;;6124504;23;19920;-90
2022/11/29 01:23:06;;;;;;;;;;;;;;;;;;6149397;23;19931;-91
2022/11/29 01:25:32;;;;;;;;;;;;;;;;;;6149048;23;19978;-91
2022/11/29 01:27:58;;;;;;;;;;;;;;;;;;6126946;23;20245;-91
2022/11/29 01:30:27;;;;;;;;;;;;;;;;;;6125240;23;19924;-91
2022/11/29 01:32:53;;;;;;;;;;;;;;;;;;6126670;23;19943;-91
2022/11/29 01:35:19;;;;;;;;;;;;;;;;;;6125323;23;19920;-91
2022/11/29 01:37:45;;;;;;;;;;;;;;;;;;6149112;23;20542;-92
2022/11/29 01:40:12;;;;;;;;;;;;;;;;;;6123754;23;19920;-90
2022/11/29 01:42:38;;;;;;;;;;;;;;;;;;6143804;23;20274;-90
2022/11/29 01:45:04;;;;;;;;;;;;;;;;;;6120684;23;19927;-91
2022/11/29 01:47:30;;;;;;;;;;;;;;;;;;6120125;23;20274;-91
2022/11/29 01:49:56;;;;;;;;;;;;;;;;;;6123238;23;19916;-90
2022/11/29 01:52:22;;;;;;;;;;;;;;;;;;6121295;23;20476;-91
2022/11/29 01:54:48;;;;;;;;;;;;;;;;;;6146252;23;19940;-91
2022/11/29 01:57:14;;;;;;;;;;;;;;;;;;6147811;23;19919;-91
2022/11/29 01:59:40;;;;;;;;;;;;;;;;;;6123723;23;19928;-91
2022/11/29 02:02:06;;;;;;;;;;;;;;;;;;6145818;23;19995;-91
2022/11/29 02:04:32;;;;;;;;;;;;;;;;;;6122869;23;19924;-91
2022/11/29 02:06:58;;;;;;;;;;;;;;;;;;6125858;23;20400;-91
2022/11/29 02:09:27;;;;;;;;;;;;;;;;;;6148976;23;19921;-91
2022/11/29 02:11:53;;;;;;;;;;;;;;;;;;6122376;23;20018;-91
2022/11/29 02:14:19;;;;;;;;;;;;;;;;;;6094929;23;19925;-91
2022/11/29 02:16:45;;;;;;;;;;;;;;;;;;6114856;23;20254;-91
2022/11/29 02:19:11;;;;;;;;;;;;;;;;;;6118601;23;19916;-91
2022/11/29 02:21:37;;;;;;;;;;;;;;;;;;6114637;23;19935;-91
2022/11/29 02:24:03;;;;;;;;;;;;;;;;;;6118028;23;19920;-91
2022/11/29 02:26:29;;;;;;;;;;;;;;;;;;6115631;23;20326;-91
2022/11/29 02:28:55;;;;;;;;;;;;;;;;;;6117425;23;19927;-91
2022/11/29 02:31:21;;;;;;;;;;;;;;;;;;6118066;23;19921;-91
2022/11/29 02:33:46;;;;;;;;;;;;;;;;;;6115441;23;19939;-91
2022/11/29 02:36:12;;;;;;;;;;;;;;;;;;6116455;23;19954;-91
2022/11/29 02:38:38;;;;;;;;;;;;;;;;;;6112186;23;19920;-92
2022/11/29 02:41:04;;;;;;;;;;;;;;;;;;6114609;23;19971;-91
2022/11/29 02:43:30;;;;;;;;;;;;;;;;;;6111162;23;19970;-91
2022/11/29 02:45:56;;;;;;;;;;;;;;;;;;6111525;23;20028;-91
2022/11/29 02:48:22;;;;;;;;;;;;;;;;;;6113692;23;20342;-91
2022/11/29 02:50:48;;;;;;;;;;;;;;;;;;6112732;23;19987;-90
2022/11/29 02:53:14;;;;;;;;;;;;;;;;;;6113909;23;19928;-92
2022/11/29 02:55:40;;;;;;;;;;;;;;;;;;6114273;23;19969;-91
2022/11/29 02:58:06;;;;;;;;;;;;;;;;;;6118346;23;20370;-91
2022/11/29 03:00:32;;;;;;;;;;;;;;;;;;6117570;23;19932;-91
2022/11/29 03:02:58;;;;;;;;;;;;;;;;;;6118382;23;19921;-90
2022/11/29 03:05:27;;;;;;;;;;;;;;;;;;6118415;23;19920;-90
2022/11/29 03:07:53;;;;;;;;;;;;;;;;;;6117858;23;20354;-91
2022/11/29 03:10:19;;;;;;;;;;;;;;;;;;6120416;23;19921;-90
2022/11/29 03:12:45;;;;;;;;;;;;;;;;;;6121766;23;20321;-90
2022/11/29 03:15:11;;;;;;;;;;;;;;;;;;6122791;23;19967;-91
2022/11/29 03:17:37;;;;;;;;;;;;;;;;;;6120945;23;19963;-90
2022/11/29 03:20:03;;;;;;;;;;;;;;;;;;6124385;23;20443;-91
2022/11/29 03:22:29;;;;;;;;;;;;;;;;;;6121939;23;20023;-91
2022/11/29 03:24:55;;;;;;;;;;;;;;;;;;6124770;23;19916;-90
2022/11/29 03:27:21;;;;;;;;;;;;;;;;;;6146565;23;19942;-91
2022/11/29 03:29:47;;;;;;;;;;;;;;;;;;6145172;23;20348;-90
2022/11/29 03:32:13;;;;;;;;;;;;;;;;;;6122016;23;19920;-90
2022/11/29 03:34:38;;;;;;;;;;;;;;;;;;6122493;23;19978;-91
2022/11/29 03:37:04;;;;;;;;;;;;;;;;;;6121903;23;20300;-90
2022/11/29 03:39:30;;;;;;;;;;;;;;;;;;6119078;23;19920;-90
2022/11/29 03:41:56;;;;;;;;;;;;;;;;;;6123373;23;19930;-91
2022/11/29 03:44:22;;;;;;;;;;;;;;;;;;6146191;23;19925;-90
2022/11/29 03:46:48;;;;;;;;;;;;;;;;;;6145937;23;19995;-91
2022/11/29 03:49:14;;;;;;;;;;;;;;;;;;6125237;23;19954;-90
2022/11/29 03:51:40;;;;;;;;;;;;;;;;;;6119576;23;20270;-91
2022/11/29 03:54:06;;;;;;;;;;;;;;;;;;6148577;23;19927;-90
2022/11/29 03:56:32;;;;;;;;;;;;;;;;;;6121807;23;19931;-90
2022/11/29 03:58:58;;;;;;;;;;;;;;;;;;6147745;23;20286;-91
2022/11/29 04:01:28;;;;;;;;;;;;;;;;;;6146610;23;19920;-92
2022/11/29 04:03:54;;;;;;;;;;;;;;;;;;6124813;23;19991;-91
2022/11/29 04:06:19;;;;;;;;;;;;;;;;;;6123757;23;19951;-92
2022/11/29 04:08:45;;;;;;;;;;;;;;;;;;6146828;23;20312;-90
2022/11/29 04:11:11;;;;;;;;;;;;;;;;;;6149538;23;19920;-92
2022/11/29 04:13:37;;;;;;;;;;;;;;;;;;6146584;23;19924;-91
2022/11/29 04:16:03;;;;;;;;;;;;;;;;;;6151567;23;20246;-92
2022/11/29 04:18:29;;;;;;;;;;;;;;;;;;6146970;23;19921;-92
2022/11/29 04:20:55;;;;;;;;;;;;;;;;;;6124929;23;19923;-92
2022/11/29 04:23:21;;;;;;;;;;;;;;;;;;6126911;23;19943;-91
2022/11/29 04:25:48;;;;;;;;;;;;;;;;;;6123243;23;19923;-91
2022/11/29 04:28:14;;;;;;;;;;;;;;;;;;6147067;23;20352;-91
2022/11/29 04:30:40;;;;;;;;;;;;;;;;;;6118751;23;19920;-91
2022/11/29 04:33:06;;;;;;;;;;;;;;;;;;6120708;23;20350;-91
2022/11/29 04:35:32;;;;;;;;;;;;;;;;;;6120061;23;20424;-91
2022/11/29 04:37:58;;;;;;;;;;;;;;;;;;6120950;23;19969;-92
2022/11/29 04:40:27;;;;;;;;;;;;;;;;;;6147524;23;20504;-92
2022/11/29 04:42:53;;;;;;;;;;;;;;;;;;6123769;23;19924;-91
2022/11/29 04:45:19;;;;;;;;;;;;;;;;;;6147303;23;19943;-91
2022/11/29 04:47:45;;;;;;;;;;;;;;;;;;6118206;23;20213;-91
2022/11/29 04:50:11;;;;;;;;;;;;;;;;;;6122592;23;19963;-91
2022/11/29 04:52:37;;;;;;;;;;;;;;;;;;6145152;23;19963;-92
2022/11/29 04:55:03;;;;;;;;;;;;;;;;;;6124952;23;19916;-91
2022/11/29 04:57:29;;;;;;;;;;;;;;;;;;6146748;23;20253;-92
2022/11/29 04:59:55;;;;;;;;;;;;;;;;;;6149025;23;19994;-90
2022/11/29 05:02:21;;;;;;;;;;;;;;;;;;6121714;23;19927;-90
2022/11/29 05:04:47;;;;;;;;;;;;;;;;;;6144692;23;19920;-90
2022/11/29 05:07:13;;;;;;;;;;;;;;;;;;6125341;23;19943;-91
2022/11/29 05:09:39;;;;;;;;;;;;;;;;;;6123703;23;20002;-90
2022/11/29 05:12:04;;;;;;;;;;;;;;;;;;6148782;23;19928;-90
2022/11/29 05:14:30;;;;;;;;;;;;;;;;;;6147460;23;19916;-91
2022/11/29 05:16:56;;;;;;;;;;;;;;;;;;6151156;23;19920;-91
2022/11/29 05:19:24;;;;;;;;;;;;;;;;;;6149475;23;20261;-90
2022/11/29 05:21:52;;;;;;;;;;;;;;;;;;6148798;23;20006;-90
2022/11/29 05:24:18;;;;;;;;;;;;;;;;;;6124858;23;19954;-90
2022/11/29 05:26:44;;;;;;;;;;;;;;;;;;6123499;23;19964;-90
2022/11/29 05:29:10;;;;;;;;;;;;;;;;;;6125053;23;20261;-90
2022/11/29 05:31:36;;;;;;;;;;;;;;;;;;6127204;23;19917;-91
2022/11/29 05:34:02;;;;;;;;;;;;;;;;;;6128411;23;19999;-90
2022/11/29 05:36:28;;;;;;;;;;;;;;;;;;6149837;23;19924;-92
2022/11/29 05:38:54;;;;;;;;;;;;;;;;;;6127418;23;20080;-92
2022/11/29 05:41:20;;;;;;;;;;;;;;;;;;6148047;23;19924;-91
2022/11/29 05:43:46;;;;;;;;;;;;;;;;;;6144251;23;20442;-91
2022/11/29 05:46:12;;;;;;;;;;;;;;;;;;6121490;23;20253;-91
2022/11/29 05:48:43;;;;;;;;;;;;;;;;;;6119736;23;19920;-92
2022/11/29 05:51:09;;;;;;;;;;;;;;;;;;6148772;23;20226;-91
2022/11/29 05:53:35;;;;;;;;;;;;;;;;;;6148159;23;19991;-91
2022/11/29 05:56:01;;;;;;;;;;;;;;;;;;6145779;23;20322;-90
2022/11/29 05:58:27;;;;;;;;;;;;;;;;;;6119023;23;20252;-91
2022/11/29 06:00:53;;;;;;;;;;;;;;;;;;6120845;23;19924;-91
2022/11/29 06:03:19;;;;;;;;;;;;;;;;;;6152232;23;19947;-91
2022/11/29 06:05:45;;;;;;;;;;;;;;;;;;6153468;23;20084;-92
2022/11/29 06:08:11;;;;;;;;;;;;;;;;;;6129048;23;20313;-92
2022/11/29 06:10:38;;;;;;;;;;;;;;;;;;6151448;23;19928;-92
2022/11/29 06:13:04;;;;;;;;;;;;;;;;;;6155504;23;19931;-93
2022/11/29 06:15:30;;;;;;;;;;;;;;;;;;6157789;23;19917;-93
2022/11/29 06:17:56;;;;;;;;;;;;;;;;;;6160148;23;20301;-92
2022/11/29 06:20:22;;;;;;;;;;;;;;;;;;6134098;23;19971;-93
2022/11/29 06:22:49;;;;;;;;;;;;;;;;;;6133379;23;19920;-94
2022/11/29 06:25:16;;;;;;;;;;;;;;;;;;6131943;23;19921;-92
2022/11/29 06:27:41;;;;;;;;;;;;;;;;;;6132718;23;20376;-92
2022/11/29 06:30:08;;;;;;;;;;;;;;;;;;6159233;23;19923;-92
2022/11/29 06:32:35;;;;;;;;;;;;;;;;;;6156768;23;20325;-92
2022/11/29 06:35:01;;;;;;;;;;;;;;;;;;6157581;23;19927;-92
2022/11/29 06:37:27;;;;;;;;;;;;;;;;;;6130054;23;19920;-92
2022/11/29 06:39:53;;;;;;;;;;;;;;;;;;6129966;23;19995;-92
2022/11/29 06:42:19;;;;;;;;;;;;;;;;;;6129542;23;20002;-92
2022/11/29 06:44:45;;;;;;;;;;;;;;;;;;6157475;23;20243;-92
2022/11/29 06:47:11;;;;;;;;;;;;;;;;;;6134272;23;19920;-92
2022/11/29 06:49:37;;;;;;;;;;;;;;;;;;6157453;23;19923;-92
2022/11/29 06:52:03;;;;;;;;;;;;;;;;;;6157246;23;19916;-92
2022/11/29 06:54:29;;;;;;;;;;;;;;;;;;6154985;23;20233;-92
2022/11/29 06:56:55;;;;;;;;;;;;;;;;;;6157409;23;20322;-92
2022/11/29 06:59:21;;;;;;;;;;;;;;;;;;6133486;23;20230;-93
2022/11/29 07:01:49;;;;;;;;;;;;;;;;;;6130762;23;19926;-93
2022/11/29 07:04:18;;;;;;;;;;;;;;;;;;6138134;23;19951;-94
2022/11/29 07:06:44;;;;;;;;;;;;;;;;;;6128145;23;19952;-91
2022/11/29 07:09:12;;;;;;;;;;;;;;;;;;6149759;23;19928;-91
2022/11/29 07:11:38;;;;;;;;;;;;;;;;;;6125402;23;20288;-90
2022/11/29 07:14:04;;;;;;;;;;;;;;;;;;6125712;23;19995;-91
2022/11/29 07:16:30;;;;;;;;;;;;;;;;;;6150163;23;20358;-91
2022/11/29 07:18:56;;;;;;;;;;;;;;;;;;6154288;23;19955;-91
2022/11/29 07:21:25;;;;;;;;;;;;;;;;;;6126829;23;19927;-90
2022/11/29 07:23:51;;;;;;;;;;;;;;;;;;6126780;23;19920;-91
2022/11/29 07:26:17;;;;;;;;;;;;;;;;;;6152496;23;19954;-91
2022/11/29 07:28:43;;;;;;;;;;;;;;;;;;6150144;23;19974;-90
2022/11/29 07:31:09;;;;;;;;;;;;;;;;;;6127438;23;20341;-90
2022/11/29 07:33:35;;;;;;;;;;;;;;;;;;6124482;23;19963;-91
2022/11/29 07:36:01;;;;;;;;;;;;;;;;;;6126141;23;19920;-91
2022/11/29 07:38:27;;;;;;;;;;;;;;;;;;6124976;23;20332;-90
2022/11/29 07:40:53;;;;;;;;;;;;;;;;;;6152777;23;20285;-91
2022/11/29 07:43:19;;;;;;;;;;;;;;;;;;6149793;23;19947;-91
2022/11/29 07:45:45;;;;;;;;;;;;;;;;;;6125944;23;20328;-90
2022/11/29 07:48:11;;;;;;;;;;;;;;;;;;6152493;23;20357;-90
2022/11/29 07:50:37;;;;;;;;;;;;;;;;;;6149714;23;19928;-91
2022/11/29 07:53:03;;;;;;;;;;;;;;;;;;6176437;23;19920;-90
2022/11/29 07:55:29;;;;;;;;;;;;;;;;;;6123725;23;20305;-91
2022/11/29 07:57:55;;;;;;;;;;;;;;;;;;6152630;23;19924;-91
2022/11/29 08:00:21;;;;;;;;;;;;;;;;;;6150978;23;19920;-90
2022/11/29 08:02:47;;;;;;;;;;;;;;;;;;6146659;23;19979;-91
2022/11/29 08:05:13;;;;;;;;;;;;;;;;;;6149956;23;19923;-91
2022/11/29 08:07:39;;;;;;;;;;;;;;;;;;6149607;23;19921;-91
2022/11/29 08:10:05;;;;;;;;;;;;;;;;;;6126632;23;19924;-91
2022/11/29 08:12:31;;;;;;;;;;;;;;;;;;6123838;23;19926;-90
2022/11/29 08:14:57;;;;;;;;;;;;;;;;;;6149657;23;20326;-90
2022/11/29 08:17:24;;;;;;;;;;;;;;;;;;6127044;23;19971;-91
2022/11/29 08:19:53;;;;;;;;;;;;;;;;;;6152434;23;19955;-91
2022/11/29 08:22:19;;;;;;;;;;;;;;;;;;6149444;23;19924;-90
2022/11/29 08:24:45;;;;;;;;;;;;;;;;;;6146703;23;20321;-91
2022/11/29 08:27:11;;;;;;;;;;;;;;;;;;6127786;23;19927;-91
2022/11/29 08:29:37;;;;;;;;;;;;;;;;;;6127579;23;19920;-91
2022/11/29 08:32:03;;;;;;;;;;;;;;;;;;6153846;23;20011;-91
2022/11/29 08:34:29;;;;;;;;;;;;;;;;;;6150898;23;19939;-91
2022/11/29 08:36:55;;;;;;;;;;;;;;;;;;6128577;23;19955;-91
2022/11/29 08:39:21;;;;;;;;;;;;;;;;;;6150427;23;19920;-90
2022/11/29 08:41:47;;;;;;;;;;;;;;;;;;6148413;23;19924;-91
2022/11/29 08:44:13;;;;;;;;;;;;;;;;;;6126593;23;20298;-91
2022/11/29 08:49:26;;;;;;;;;;;;;;;;;;6149834;23;19916;-91
2022/11/29 08:53:40;;;;;;;;;;;;;;;;;;6126623;23;20265;-91
2022/11/29 08:54:38;;;;;;;;;;;;;;;;;;6151551;23;20329;-90
2022/11/29 08:57:04;;;;;;;;;;;;;;;;;;6129001;23;20297;-90
2022/11/29 08:59:30;;;;;;;;;;;;;;;;;;6125201;23;19920;-91
2022/11/29 09:01:56;;;;;;;;;;;;;;;;;;6148551;23;19986;-91
2022/11/29 09:04:22;;;;;;;;;;;;;;;;;;6126094;23;20365;-91
2022/11/29 09:06:49;;;;;;;;;;;;;;;;;;6146240;23;20343;-91
2022/11/29 09:09:15;;;;;;;;;;;;;;;;;;6177457;23;20004;-91
2022/11/29 09:11:41;;;;;;;;;;;;;;;;;;6150431;23;19920;-90
2022/11/29 09:14:07;;;;;;;;;;;;;;;;;;6152660;23;19995;-91
2022/11/29 09:16:33;;;;;;;;;;;;;;;;;;6126073;23;19916;-91
2022/11/29 09:18:59;;;;;;;;;;;;;;;;;;6151115;23;20484;-90
2022/11/29 09:21:28;;;;;;;;;;;;;;;;;;6152841;23;20367;-91
2022/11/29 09:23:57;;;;;;;;;;;;;;;;;;6152915;23;19920;-91
2022/11/29 09:26:23;;;;;;;;;;;;;;;;;;6151071;23;20432;-90
2022/11/29 09:28:49;;;;;;;;;;;;;;;;;;6146186;23;19928;-91
2022/11/29 09:31:15;;;;;;;;;;;;;;;;;;6127990;23;19920;-91
2022/11/29 09:33:41;;;;;;;;;;;;;;;;;;6148686;23;19920;-91
2022/11/29 09:36:07;;;;;;;;;;;;;;;;;;6152541;23;19920;-91
2022/11/29 09:38:33;;;;;;;;;;;;;;;;;;6151378;23;19940;-91
2022/11/29 09:40:59;;;;;;;;;;;;;;;;;;6125877;23;19995;-91
2022/11/29 09:43:25;;;;;;;;;;;;;;;;;;6151605;23;19974;-91
2022/11/29 09:45:51;;;;;;;;;;;;;;;;;;6151969;23;20319;-91
2022/11/29 09:48:17;;;;;;;;;;;;;;;;;;6126703;23;19943;-92
2022/11/29 09:50:43;;;;;;;;;;;;;;;;;;6126781;23;20011;-91
2022/11/29 09:53:09;;;;;;;;;;;;;;;;;;6153385;23;19979;-91
2022/11/29 09:55:37;;;;;;;;;;;;;;;;;;6150393;23;20533;-91
2022/11/29 09:58:02;;;;;;;;;;;;;;;;;;6152323;23;20297;-91
2022/11/29 10:00:28;;;;;;;;;;;;;;;;;;6151768;23;19960;-91
2022/11/29 10:02:54;;;;;;;;;;;;;;;;;;6153646;23;19924;-91
2022/11/29 10:05:20;;;;;;;;;;;;;;;;;;6155000;23;19966;-91
2022/11/29 10:07:46;;;;;;;;;;;;;;;;;;6150443;23;20337;-91
2022/11/29 10:10:12;;;;;;;;;;;;;;;;;;6129305;23;20297;-91
2022/11/29 10:12:38;;;;;;;;;;;;;;;;;;6126097;23;19943;-90
2022/11/29 10:15:04;;;;;;;;;;;;;;;;;;6129261;23;19924;-91
2022/11/29 10:17:30;;;;;;;;;;;;;;;;;;6174560;23;19987;-91
2022/11/29 10:19:56;;;;;;;;;;;;;;;;;;6177752;23;19938;-91
2022/11/29 10:22:22;;;;;;;;;;;;;;;;;;6151699;23;19924;-91
2022/11/29 10:24:48;;;;;;;;;;;;;;;;;;6149862;23;20289;-91
2022/11/29 10:27:14;;;;;;;;;;;;;;;;;;6151966;23;19924;-90
2022/11/29 10:29:40;;;;;;;;;;;;;;;;;;6176357;23;19927;-91
2022/11/29 10:32:06;;;;;;;;;;;;;;;;;;6153515;23;19939;-90
2022/11/29 10:34:32;;;;;;;;;;;;;;;;;;6150684;23;19960;-91
2022/11/29 10:36:58;;;;;;;;;;;;;;;;;;6153556;23;19923;-90
2022/11/29 10:39:27;;;;;;;;;;;;;;;;;;6154600;23;19971;-91
2022/11/29 10:41:53;;;;;;;;;;;;;;;;;;6152297;23;19920;-90
2022/11/29 10:44:19;;;;;;;;;;;;;;;;;;6149608;23;19927;-90
2022/11/29 10:46:56;;;;;;;;;;;;;;;;;;6148328;23;20461;-91
2022/11/29 10:49:29;;;;;;;;;;;;;;;;;;6087477;23;20319;-91
2022/11/29 10:51:55;;;;;;;;;;;;;;;;;;6067711;23;19920;-92
2022/11/29 10:54:21;;;;;;;;;;;;;;;;;;6065318;23;19920;-91
2022/11/29 10:56:47;;;;;;;;;;;;;;;;;;6063145;23;19921;-90
2022/11/29 10:59:13;;;;;;;;;;;;;;;;;;6066336;23;19921;-90
2022/11/29 11:01:39;;;;;;;;;;;;;;;;;;6063352;23;20457;-91
2022/11/29 11:04:08;;;;;;;;;;;;;;;;;;6066421;23;19952;-91
2022/11/29 11:06:34;;;;;;;;;;;;;;;;;;6089179;23;19917;-90
2022/11/29 11:09:00;;;;;;;;;;;;;;;;;;6090832;23;19927;-90
2022/11/29 11:11:26;;;;;;;;;;;;;;;;;;6088582;23;19924;-91
2022/11/29 11:13:52;;;;;;;;;;;;;;;;;;6064149;23;20343;-91
2022/11/29 11:16:18;;;;;;;;;;;;;;;;;;6067903;23;19920;-91
2022/11/29 11:18:44;;;;;;;;;;;;;;;;;;6065602;23;20231;-91
2022/11/29 11:21:10;;;;;;;;;;;;;;;;;;6067741;23;20310;-91
2022/11/29 11:23:37;;;;;;;;;;;;;;;;;;6089010;23;19921;-90
2022/11/29 11:26:03;;;;;;;;;;;;;;;;;;6077795;23;20448;-91
2022/11/29 11:28:29;;;;;;;;;;;;;;;;;;6148998;23;19920;-91
2022/11/29 11:30:55;;;;;;;;;;;;;;;;;;6151157;23;19920;-91
2022/11/29 11:33:23;;;;;;;;;;;;;;;;;;6152204;23;19926;-91
2022/11/29 11:35:49;;;;;;;;;;;;;;;;;;6149243;23;19916;-91
2022/11/29 11:38:15;;;;;;;;;;;;;;;;;;6150169;23;20462;-91
2022/11/29 11:40:41;;;;;;;;;;;;;;;;;;6147256;23;20231;-91
2022/11/29 11:43:07;;;;;;;;;;;;;;;;;;6149379;23;19920;-90
2022/11/29 11:45:33;;;;;;;;;;;;;;;;;;6149281;23;19970;-91
2022/11/29 11:48:00;;;;;;;;;;;;;;;;;;6150933;23;19921;-91
2022/11/29 11:50:26;;;;;;;;;;;;;;;;;;6146565;23;19920;-91
2022/11/29 11:52:52;;;;;;;;;;;;;;;;;;6148597;23;19943;-91
2022/11/29 11:55:21;;;;;;;;;;;;;;;;;;6152323;23;19920;-91
2022/11/29 11:57:47;;;;;;;;;;;;;;;;;;6149932;23;19955;-91
2022/11/29 12:00:13;;;;;;;;;;;;;;;;;;6150591;23;19921;-91
2022/11/29 12:02:39;;;;;;;;;;;;;;;;;;6148122;23;19927;-91
2022/11/29 12:05:05;;;;;;;;;;;;;;;;;;6152003;23;19917;-92
2022/11/29 12:07:31;;;;;;;;;;;;;;;;;;6149112;23;19920;-91
2022/11/29 12:09:57;;;;;;;;;;;;;;;;;;6150570;23;20644;-91
2022/11/29 12:12:23;;;;;;;;;;;;;;;;;;6150276;23;19952;-90
2022/11/29 12:14:49;;;;;;;;;;;;;;;;;;6150216;23;19931;-91
2022/11/29 12:17:15;;;;;;;;;;;;;;;;;;6128937;23;19920;-91
2022/11/29 12:19:41;;;;;;;;;;;;;;;;;;6126251;23;19920;-91
2022/11/29 12:22:07;;;;;;;;;;;;;;;;;;6129865;23;19930;-91
2022/11/29 12:24:33;;;;;;;;;;;;;;;;;;6124896;23;19991;-91
2022/11/29 12:26:59;;;;;;;;;;;;;;;;;;6150815;23;19963;-91
2022/11/29 12:29:28;;;;;;;;;;;;;;;;;;6127926;23;19966;-91
2022/11/29 12:31:54;;;;;;;;;;;;;;;;;;6127728;23;19916;-91
2022/11/29 12:34:20;;;;;;;;;;;;;;;;;;6128968;23;19923;-90
2022/11/29 12:36:46;;;;;;;;;;;;;;;;;;6123524;23;19928;-91
2022/11/29 12:39:12;;;;;;;;;;;;;;;;;;6128568;23;19924;-91
2022/11/29 12:41:38;;;;;;;;;;;;;;;;;;6126368;23;19920;-91
2022/11/29 12:44:04;;;;;;;;;;;;;;;;;;6127508;23;19927;-91
2022/11/29 12:46:30;;;;;;;;;;;;;;;;;;6129413;23;19995;-91
2022/11/29 12:48:56;;;;;;;;;;;;;;;;;;6128721;23;19951;-91
2022/11/29 12:51:22;;;;;;;;;;;;;;;;;;6126089;23;19924;-91
2022/11/29 12:53:48;;;;;;;;;;;;;;;;;;6125198;23;19920;-91
2022/11/29 12:56:32;;;;;;;;;;;;;;;;;;6127892;23;19916;-91
2022/11/29 12:59:01;;;;;;;;;;;;;;;;;;6150769;23;20366;-91
2022/11/29 13:01:36;;;;;;;;;;;;;;;;;;6125794;23;19944;-92
2022/11/29 13:04:02;;;;;;;;;;;;;;;;;;6118932;23;19928;-91
2022/11/29 13:06:31;;;;;;;;;;;;;;;;;;6119678;23;19920;-92
2022/11/29 13:09:02;;;;;;;;;;;;;;;;;;6125451;23;20022;-91
2022/11/29 13:11:40;;;;;;;;;;;;;;;;;;6147627;23;20232;-92
2022/11/29 13:14:15;;;;;;;;;;;;;;;;;;6110644;23;19925;-92
2022/11/29 13:16:41;;;;;;;;;;;;;;;;;;6117402;23;19931;-91
2022/11/29 13:19:11;;;;;;;;;;;;;;;;;;6121376;23;19992;-92
2022/11/29 13:21:39;;;;;;;;;;;;;;;;;;6115983;23;19984;-91
2022/11/29 13:24:11;;;;;;;;;;;;;;;;;;6119240;23;19920;-92
2022/11/29 13:26:40;;;;;;;;;;;;;;;;;;6117069;23;20000;-91
2022/11/29 13:29:14;;;;;;;;;;;;;;;;;;6117279;23;19924;-92
2022/11/29 13:31:40;;;;;;;;;;;;;;;;;;6115751;23;19963;-91
2022/11/29 13:34:07;;;;;;;;;;;;;;;;;;6118325;23;19920;-92
2022/11/29 13:36:33;;;;;;;;;;;;;;;;;;6116568;23;20386;-92
2022/11/29 13:38:59;;;;;;;;;;;;;;;;;;6117622;23;19921;-91
2022/11/29 13:41:28;;;;;;;;;;;;;;;;;;6114556;23;19959;-91
2022/11/29 13:44:03;;;;;;;;;;;;;;;;;;6117284;23;19928;-91
2022/11/29 13:46:40;;;;;;;;;;;;;;;;;;6115508;23;20450;-92
2022/11/29 13:49:12;;;;;;;;;;;;;;;;;;6120283;23;19999;-91
2022/11/29 13:51:39;;;;;;;;;;;;;;;;;;6115233;23;20282;-91
2022/11/29 13:54:05;;;;;;;;;;;;;;;;;;6119051;23;20172;-91
2022/11/29 13:56:32;;;;;;;;;;;;;;;;;;6113216;23;19925;-91
2022/11/29 13:58:59;;;;;;;;;;;;;;;;;;6116649;23;19956;-92
2022/11/29 14:01:25;;;;;;;;;;;;;;;;;;6113845;23;19928;-90
2022/11/29 14:03:54;;;;;;;;;;;;;;;;;;6115973;23;19929;-91
2022/11/29 14:06:20;;;;;;;;;;;;;;;;;;6120660;23;19924;-91
2022/11/29 14:08:46;;;;;;;;;;;;;;;;;;6116444;23;19921;-91
2022/11/29 14:11:12;;;;;;;;;;;;;;;;;;6117756;23;19927;-91
2022/11/29 14:13:38;;;;;;;;;;;;;;;;;;6122985;23;19920;-91
2022/11/29 14:16:04;;;;;;;;;;;;;;;;;;6123208;23;19920;-92
2022/11/29 14:18:30;;;;;;;;;;;;;;;;;;6145490;23;19970;-91
2022/11/29 14:20:56;;;;;;;;;;;;;;;;;;6124373;23;19970;-91
2022/11/29 14:23:22;;;;;;;;;;;;;;;;;;6148403;23;19924;-91
2022/11/29 14:25:48;;;;;;;;;;;;;;;;;;6120680;23;19928;-91
2022/11/29 14:28:14;;;;;;;;;;;;;;;;;;6123806;23;19962;-92
2022/11/29 14:30:40;;;;;;;;;;;;;;;;;;6117288;23;19920;-92
2022/11/29 14:33:06;;;;;;;;;;;;;;;;;;6145729;23;19920;-91
2022/11/29 14:35:32;;;;;;;;;;;;;;;;;;6120204;23;19975;-92
2022/11/29 14:37:58;;;;;;;;;;;;;;;;;;6126441;23;19923;-91
2022/11/29 14:40:27;;;;;;;;;;;;;;;;;;6125477;23;19920;-92
2022/11/29 14:42:53;;;;;;;;;;;;;;;;;;6123765;23;19924;-92
2022/11/29 14:45:19;;;;;;;;;;;;;;;;;;6122740;23;19943;-92
2022/11/29 14:47:45;;;;;;;;;;;;;;;;;;6120790;23;20286;-91
2022/11/29 14:50:14;;;;;;;;;;;;;;;;;;6122312;23;19916;-92
2022/11/29 14:52:40;;;;;;;;;;;;;;;;;;6120777;23;19920;-91
2022/11/29 14:55:06;;;;;;;;;;;;;;;;;;6122548;23;19958;-92
2022/11/29 14:57:32;;;;;;;;;;;;;;;;;;6118589;23;19924;-91
2022/11/29 14:59:58;;;;;;;;;;;;;;;;;;6145666;23;19974;-92
2022/11/29 15:02:24;;;;;;;;;;;;;;;;;;6145436;23;19969;-91
2022/11/29 15:04:53;;;;;;;;;;;;;;;;;;6142001;23;19924;-91
2022/11/29 15:07:19;;;;;;;;;;;;;;;;;;6147115;23;19920;-92
2022/11/29 15:09:45;;;;;;;;;;;;;;;;;;6117345;23;20126;-92
2022/11/29 15:12:11;;;;;;;;;;;;;;;;;;6121337;23;19920;-91
2022/11/29 15:14:36;;;;;;;;;;;;;;;;;;6144449;23;20326;-91
2022/11/29 15:17:02;;;;;;;;;;;;;;;;;;6142830;23;20210;-91
2022/11/29 15:19:28;;;;;;;;;;;;;;;;;;6119838;23;19920;-93
2022/11/29 15:21:54;;;;;;;;;;;;;;;;;;6121821;23;19986;-92
2022/11/29 15:24:21;;;;;;;;;;;;;;;;;;6122472;23;19927;-92
2022/11/29 15:26:47;;;;;;;;;;;;;;;;;;6118874;23;19966;-92
2022/11/29 15:29:13;;;;;;;;;;;;;;;;;;6122310;23;19921;-92
2022/11/29 15:31:39;;;;;;;;;;;;;;;;;;6119852;23;19924;-93
2022/11/29 15:34:05;;;;;;;;;;;;;;;;;;6124426;23;19923;-93
2022/11/29 15:36:33;;;;;;;;;;;;;;;;;;6141737;23;19924;-92
2022/11/29 15:39:00;;;;;;;;;;;;;;;;;;6146201;23;19920;-92
2022/11/29 15:41:26;;;;;;;;;;;;;;;;;;6119562;23;19920;-92
2022/11/29 15:43:52;;;;;;;;;;;;;;;;;;6120470;23;20265;-92
2022/11/29 15:46:18;;;;;;;;;;;;;;;;;;6121668;23;20407;-92
2022/11/29 15:48:44;;;;;;;;;;;;;;;;;;6140783;23;20019;-92
2022/11/29 15:51:10;;;;;;;;;;;;;;;;;;6122998;23;19924;-93
2022/11/29 15:53:36;;;;;;;;;;;;;;;;;;6118338;23;20023;-92
2022/11/29 15:56:02;;;;;;;;;;;;;;;;;;6122983;23;19924;-92
2022/11/29 15:58:28;;;;;;;;;;;;;;;;;;6144734;23;19931;-93
2022/11/29 16:00:54;;;;;;;;;;;;;;;;;;6122402;23;19991;-93
2022/11/29 16:03:20;;;;;;;;;;;;;;;;;;6120541;23;19921;-93
2022/11/29 16:05:46;;;;;;;;;;;;;;;;;;6118754;23;20170;-92
2022/11/29 16:08:12;;;;;;;;;;;;;;;;;;6123764;23;19924;-91
2022/11/29 16:10:38;;;;;;;;;;;;;;;;;;6121971;23;20014;-92
2022/11/29 16:13:04;;;;;;;;;;;;;;;;;;6144720;23;19956;-90
2022/11/29 16:15:30;;;;;;;;;;;;;;;;;;6147801;23;19970;-91
2022/11/29 16:17:56;;;;;;;;;;;;;;;;;;6148700;23;20237;-91
2022/11/29 16:20:23;;;;;;;;;;;;;;;;;;6146181;23;19924;-91
2022/11/29 16:22:48;;;;;;;;;;;;;;;;;;6142426;23;19924;-91
2022/11/29 16:25:14;;;;;;;;;;;;;;;;;;6145743;23;19920;-91
2022/11/29 16:27:40;;;;;;;;;;;;;;;;;;6120372;23;19920;-91
2022/11/29 16:30:06;;;;;;;;;;;;;;;;;;6123283;23;19920;-91
2022/11/29 16:32:32;;;;;;;;;;;;;;;;;;6144916;23;19924;-91
2022/11/29 16:34:58;;;;;;;;;;;;;;;;;;6125387;23;20047;-91
2022/11/29 16:37:27;;;;;;;;;;;;;;;;;;6124191;23;19955;-90
2022/11/29 16:39:53;;;;;;;;;;;;;;;;;;6122013;23;20336;-91
2022/11/29 16:42:22;;;;;;;;;;;;;;;;;;6120091;23;19924;-90